Detalii statie FIRST FARMS FAUREI [00001992]

Toti senzorii

Date Temperatura solului [C]Precipitatii [mm]Voltaj baterie [mV]Leaf Wetness [Min]HC Air temperature [C]HC Relative humidity [%]Punctul de roua [C]
medieminmaxsumaultimatimpmedieminmaxmediemediemin
2018-10-20 14:00:00 15.6 15.4 15.9 0 7196 21.49 21.17 21.89 45.35 9 8.7
2018-10-20 15:00:00 16 15.9 16.3 0 7186 21.39 21.14 21.9 44.68 8.6 8.2
2018-10-20 16:00:00 16.3 16.2 16.4 0 7088 21.23 20.87 21.4 44.22 8.3 7.9
2018-10-20 17:00:00 16.4 16.3 16.6 0 6972 20.54 19.76 20.84 47.3 8.7 8.5
2018-10-20 18:00:00 16.5 16.4 16.7 0 6874 18.63 17.19 19.6 54.48 9 8.6
2018-10-20 19:00:00 16.3 16.3 16.4 0 6864 17.36 16.84 17.69 59.34 9.2 8.7
2018-10-20 20:00:00 16.1 16 16.4 0 6854 16.87 16.07 17.35 58.42 8.5 8.2
2018-10-20 21:00:00 15.9 15.8 16.1 0 6844 15.39 15.08 15.88 63.09 8.2 8.1
2018-10-20 22:00:00 15.7 15.7 15.9 0 6844 15.03 14.54 15.44 65.83 8.5 8.4
2018-10-20 23:00:00 15.6 15.5 15.7 0 6816 14 13.68 14.4 71.26 8.7 8.3
2018-10-21 00:00:00 15.3 15.2 15.6 0 6816 15.03 14.56 15.34 70.17 9.5 9.3
2018-10-21 01:00:00 15.2 15.1 15.4 0 6806 14.92 14.69 15.27 72.53 9.8 9.6
2018-10-21 02:00:00 15.1 15 15.3 0 6796 14.22 13.43 14.88 76.21 9.9 9.8
2018-10-21 03:00:00 15 14.9 15.1 0 6776 12.91 12.59 13.25 86.48 10.5 10.2
2018-10-21 04:00:00 14.8 14.7 14.9 0 6786 12.33 11.85 13.07 90.84 10.7 10.3
2018-10-21 05:00:00 14.6 14.5 14.8 0 6776 12.61 12.17 13 89.29 10.7 10.6
2018-10-21 06:00:00 14.4 14.4 14.6 0 6766 11.32 10.71 11.96 95.16 10.4 10.3
2018-10-21 07:00:00 14.2 14.1 14.4 0 6776 11.12 10.83 11.46 99.38 10.9 10.6
2018-10-21 08:00:00 14.1 14 14.2 0 6982 11.77 11.32 12.4 98.44 11.3 11.1
2018-10-21 09:00:00 14 13.9 14.1 0 7216 13.22 12.54 13.94 90.18 11.5 11.2
2018-10-21 10:00:00 14.1 14 14.2 0 7206 14.69 14 15.17 79.26 10.9 10.6
2018-10-21 11:00:00 14.3 14.2 14.5 0 7206 15.84 15.24 16.45 72.27 10.7 10.4
2018-10-21 12:00:00 14.7 14.4 15 0 7196 16.79 16.33 17.4 65.81 10.2 9.9
2018-10-21 13:00:00 15.1 14.9 15.3 0 7196 17.48 17.06 17.75 59.63 9.4 8.9
2018-10-21 14:00:00 15.4 15.3 15.6 0 7196 17.86 17.7 18.28 57.59 9.2 9.1
2018-10-21 15:00:00 15.6 15.5 15.8 0 7196 17.31 16.51 17.85 59.09 9 8.8
2018-10-21 16:00:00 15.8 15.6 15.9 0 7186 15.74 15.09 16.5 64.93 9 8.9
2018-10-21 17:00:00 15.7 15.6 15.9 0 6992 14.26 13.71 14.93 72.33 9.1 9
2018-10-21 18:00:00 15.5 15.4 15.7 0 6884 13.23 12.87 13.61 78 9.3 9.1
2018-10-21 19:00:00 15.2 15.2 15.4 0 6874 12.66 12.57 12.81 75.3 8.2 7.9
2018-10-21 20:00:00 15 14.9 15.2 0 6854 12.46 12.25 12.6 73.44 7.7 7.5
2018-10-21 21:00:00 14.7 14.6 14.9 0 6854 11.9 11.62 12.15 74.64 7.3 7.2
2018-10-21 22:00:00 14.5 14.4 14.7 0 6854 11.33 10.94 11.69 76.11 7 7
2018-10-21 23:00:00 14.2 14.2 14.4 0 6826 10.45 9.98 11.04 79.16 6.8 6.7
2018-10-22 00:00:00 14 13.9 14.2 0 6834 10.41 9.88 11.07 81.73 7.3 6.8
2018-10-22 01:00:00 13.7 13.7 14 0 6826 10.89 10.62 11.15 83.03 8 7.7
2018-10-22 02:00:00 13.6 13.6 13.9 0 6816 10.89 10.47 11.56 87.76 8.7 8.3
2018-10-22 03:00:00 13.5 13.4 13.6 0 6796 11.26 10.48 11.75 85.94 8.8 8.7
2018-10-22 04:00:00 13.4 13.3 13.5 0 6796 9.75 9.37 10.38 92.46 8.4 8.3
2018-10-22 05:00:00 13.2 13.1 13.4 0 6796 9.02 8.68 9.31 94.74 8 7.8
2018-10-22 06:00:00 13.1 12.9 13.2 0 6766 8.85 8.56 9.13 95.22 7.9 7.7
2018-10-22 07:00:00 12.8 12.7 13 0 6766 7.84 7.22 8.38 98.99 7.6 7.2
2018-10-22 08:00:00 12.7 12.7 12.9 0 7148 8.76 7.32 10.13 99.15 8.5 7.3
2018-10-22 09:00:00 12.7 12.6 12.9 0 7206 11.64 10.42 12.96 82.21 8.5 7.6
2018-10-22 10:00:00 12.8 12.7 13 0 7206 13.57 12.79 14.34 61.7 6.2 5.1
2018-10-22 11:00:00 13 12.8 13.2 0 7206 15.12 14.68 15.59 47.96 4 3.5
2018-10-22 12:00:00 13.4 13.2 13.7 0 7206 16.02 15.65 16.35 42.92 3.2 2.9
2018-10-22 13:00:00 13.8 13.7 14.1 0 7196 16.56 16.14 16.96 40.97 3 2.6